Time;durP1;ratioP1;P1;durP2;ratioP2;P2;SDS_P1;SDS_P2;PMS_P1;PMS_P2;Temp;Humidity;BMP_temperature;BMP_pressure;BME280_temperature;BME280_humidity;BME280_pressure;Samples;Min_cycle;Max_cycle;Signal;HPM_P1;HPM_P2
2021/04/14 00:00:06;;;;;;;23.23;4.80;;;;;;;8.47;53.28;102455.63;5158381;27;20750;-47
2021/04/14 00:02:33;;;;;;;21.90;6.10;;;;;;;8.75;53.89;102449.16;5156825;27;20475;-49
2021/04/14 00:05:00;;;;;;;28.27;4.93;;;;;;;8.50;53.37;102448.16;5157923;27;20462;-50
2021/04/14 00:07:26;;;;;;;10.93;3.20;;;;;;;8.35;53.43;102452.09;5156887;27;20460;-52
2021/04/14 00:09:53;;;;;;;18.97;3.57;;;;;;;8.39;53.83;102441.28;5157932;27;20430;-50
2021/04/14 00:12:20;;;;;;;14.63;3.10;;;;;;;8.40;53.44;102443.06;5156162;27;20486;-48
2021/04/14 00:14:47;;;;;;;17.50;3.70;;;;;;;8.46;53.21;102446.13;5137060;27;20543;-49
2021/04/14 00:17:13;;;;;;;8.67;3.13;;;;;;;8.31;53.97;102445.81;5135829;27;20447;-52
2021/04/14 00:19:40;;;;;;;38.90;10.33;;;;;;;8.50;54.38;102437.88;5136999;27;20801;-51
2021/04/14 00:22:07;;;;;;;13.60;3.90;;;;;;;8.28;54.37;102444.69;5135591;27;20511;-50
2021/04/14 00:24:36;;;;;;;16.73;3.37;;;;;;;7.81;55.07;102443.63;5136863;27;20484;-47
2021/04/14 00:27:03;;;;;;;10.43;2.80;;;;;;;7.99;55.41;102443.31;5135663;27;20457;-49
2021/04/14 00:29:30;;;;;;;18.27;5.83;;;;;;;8.42;54.08;102441.53;5137013;27;20225;-49
2021/04/14 00:31:57;;;;;;;12.55;4.05;;;;;;;8.16;54.50;102440.38;5135580;27;20447;-47
2021/04/14 00:34:25;;;;;;;12.25;3.08;;;;;;;7.87;55.34;102438.97;5136875;27;20196;-46
2021/04/14 00:36:52;;;;;;;17.15;5.80;;;;;;;7.92;55.47;102435.13;5135484;27;20238;-47
2021/04/14 00:39:21;;;;;;;14.23;4.88;;;;;;;8.08;55.37;102437.22;5136532;27;20201;-49
2021/04/14 00:41:49;;;;;;;15.47;3.13;;;;;;;8.19;55.21;102438.06;5135265;27;20321;-49
2021/04/14 00:44:16;;;;;;;19.80;3.87;;;;;;;8.15;55.05;102433.44;5136719;27;20522;-49
2021/04/14 00:46:43;;;;;;;9.63;3.47;;;;;;;8.15;55.05;102428.31;5138048;27;20470;-49
2021/04/14 00:49:13;;;;;;;20.40;5.93;;;;;;;8.40;54.82;102432.78;5157214;27;20200;-49
2021/04/14 00:51:40;;;;;;;13.55;3.80;;;;;;;8.19;55.04;102434.56;5152304;27;20446;-47
2021/04/14 00:54:07;;;;;;;19.50;3.90;;;;;;;8.15;55.12;102443.72;5156912;27;20206;-50
2021/04/14 00:56:33;;;;;;;19.13;4.20;;;;;;;8.23;55.10;102446.91;5156432;27;20458;-47
2021/04/14 00:59:00;;;;;;;19.17;4.43;;;;;;;8.47;54.54;102447.91;5157132;27;20451;-47
2021/04/14 01:01:27;;;;;;;17.50;4.43;;;;;;;8.63;54.10;102449.16;5156313;27;20473;-49
2021/04/14 01:03:55;;;;;;;17.70;5.40;;;;;;;8.42;54.63;102453.50;5156807;27;20935;-47
2021/04/14 01:06:24;;;;;;;13.47;4.00;;;;;;;8.14;55.19;102452.22;5144525;27;20769;-48
2021/04/14 01:08:51;;;;;;;24.80;10.07;;;;;;;8.60;54.72;102447.22;5135862;28;20785;-47
2021/04/14 01:11:20;;;;;;;24.13;5.63;;;;;;;8.32;54.67;102452.75;5134839;27;20419;-48
2021/04/14 01:13:47;;;;;;;20.40;4.13;;;;;;;7.89;55.62;102452.84;5135413;28;20475;-48
2021/04/14 01:16:14;;;;;;;9.33;3.40;;;;;;;8.01;55.57;102454.59;5135202;27;20454;-50
2021/04/14 01:18:41;;;;;;;17.80;3.37;;;;;;;7.94;55.41;102448.97;5135714;27;20486;-49
2021/04/14 01:21:10;;;;;;;13.47;3.67;;;;;;;7.89;55.81;102449.41;5135292;28;20560;-49
2021/04/14 01:23:38;;;;;;;9.50;3.53;;;;;;;8.00;55.73;102450.25;5134292;27;20477;-49
2021/04/14 01:26:04;;;;;;;19.00;3.70;;;;;;;8.02;55.67;102447.03;5135850;27;20532;-47
2021/04/14 01:28:33;;;;;;;14.33;3.60;;;;;;;8.08;55.38;102446.59;5134862;27;20527;-48
2021/04/14 01:31:01;;;;;;;8.73;3.53;;;;;;;7.85;55.90;102443.13;5138318;27;20427;-49
2021/04/14 01:33:31;;;;;;;26.30;6.20;;;;;;;7.99;55.48;102441.63;5137545;27;20477;-47
2021/04/14 01:35:58;;;;;;;12.33;4.97;;;;;;;8.21;55.13;102443.34;5138876;27;20214;-51
2021/04/14 01:38:25;;;;;;;21.73;5.50;;;;;;;8.27;55.08;102442.91;5137449;27;20476;-47
2021/04/14 01:40:52;;;;;;;14.63;4.00;;;;;;;7.90;55.45;102441.78;5140974;27;20281;-51
2021/04/14 01:43:19;;;;;;;17.88;4.30;;;;;;;8.03;55.22;102443.66;5137395;27;20248;-47
2021/04/14 01:45:47;;;;;;;15.70;4.37;;;;;;;8.13;54.89;102445.28;5138525;27;20238;-50
2021/04/14 01:48:15;;;;;;;27.15;8.70;;;;;;;8.02;55.72;102443.53;5137845;27;20450;-47
2021/04/14 01:50:42;;;;;;;27.00;5.73;;;;;;;8.06;54.86;102443.00;5138363;27;20635;-48
2021/04/14 01:53:11;;;;;;;24.73;6.72;;;;;;;7.79;55.62;102447.75;5136737;27;20854;-51
2021/04/14 01:55:37;;;;;;;14.07;4.85;;;;;;;7.38;56.81;102438.50;5138006;27;20223;-48
2021/04/14 01:58:06;;;;;;;18.50;5.85;;;;;;;7.47;56.52;102443.47;5137399;27;20618;-49
2021/04/14 02:00:37;;;;;;;18.15;4.47;;;;;;;7.21;57.17;102445.69;5137114;27;20206;-49
2021/04/14 02:03:04;;;;;;;13.52;4.00;;;;;;;6.90;58.33;102443.16;5138452;27;20325;-49
2021/04/14 02:05:32;;;;;;;13.27;4.00;;;;;;;6.84;58.30;102443.53;5139721;27;20198;-48
2021/04/14 02:08:00;;;;;;;14.63;4.85;;;;;;;7.03;58.05;102438.25;5138647;27;20235;-50
2021/04/14 02:10:29;;;;;;;26.33;6.55;;;;;;;7.14;57.36;102444.28;5139751;27;20209;-52
2021/04/14 02:12:56;;;;;;;12.48;4.97;;;;;;;7.38;56.88;102447.09;5137984;27;20439;-47
2021/04/14 02:15:25;;;;;;;17.02;4.75;;;;;;;7.28;57.09;102436.84;5139478;27;20289;-47
2021/04/14 02:17:52;;;;;;;19.85;5.60;;;;;;;7.22;56.76;102449.19;5138765;27;20321;-47
2021/04/14 02:20:19;;;;;;;15.00;4.55;;;;;;;7.16;57.60;102440.19;5139313;27;20203;-47
2021/04/14 02:22:47;;;;;;;25.73;5.70;;;;;;;7.27;56.82;102435.94;5137854;27;20249;-47
2021/04/14 02:25:16;;;;;;;21.48;5.13;;;;;;;7.13;57.16;102442.50;5139449;27;20202;-47
2021/04/14 02:27:43;;;;;;;14.77;4.88;;;;;;;7.46;56.57;102436.53;5138391;27;20230;-48
2021/04/14 02:30:13;;;;;;;22.27;6.75;;;;;;;7.64;55.79;102439.72;5138818;27;20203;-48
2021/04/14 02:32:40;;;;;;;12.95;5.03;;;;;;;7.48;56.19;102432.44;5137842;27;20334;-49
2021/04/14 02:35:08;;;;;;;17.83;5.40;;;;;;;7.47;56.17;102438.31;5139216;27;20202;-50
2021/04/14 02:37:35;;;;;;;29.52;5.03;;;;;;;7.52;55.88;102437.94;5137958;27;20329;-47
2021/04/14 02:40:02;;;;;;;15.57;5.70;;;;;;;7.73;55.29;102435.31;5138770;27;20203;-49
2021/04/14 02:42:29;;;;;;;22.27;5.35;;;;;;;7.51;55.94;102427.53;5137540;27;20280;-47
2021/04/14 02:44:56;;;;;;;18.50;4.45;;;;;;;7.54;55.83;102430.38;5138875;27;20202;-48
2021/04/14 02:47:22;;;;;;;19.20;6.13;;;;;;;7.75;55.85;102426.03;5138121;27;20235;-47
2021/04/14 02:49:50;;;;;;;19.45;5.03;;;;;;;7.52;55.56;102429.31;5139078;27;20201;-47
2021/04/14 02:52:16;;;;;;;16.90;5.10;;;;;;;7.56;55.42;102421.09;5137273;27;20535;-47
2021/04/14 02:54:43;;;;;;;13.73;4.18;;;;;;;7.47;55.74;102425.47;5138695;27;20472;-48
2021/04/14 02:57:10;;;;;;;18.63;4.53;;;;;;;7.21;56.59;102421.69;5136906;27;20231;-50
2021/04/14 02:59:36;;;;;;;15.20;4.75;;;;;;;7.08;56.91;102420.69;5141255;27;20205;-48
2021/04/14 03:02:03;;;;;;;13.05;4.90;;;;;;;7.03;57.08;102419.44;5137535;27;20590;-47
2021/04/14 03:04:30;;;;;;;20.52;5.40;;;;;;;6.68;58.17;102420.84;5138737;27;20204;-49
2021/04/14 03:06:58;;;;;;;12.73;4.00;;;;;;;6.91;57.42;102423.53;5137311;27;20229;-46
2021/04/14 03:09:25;;;;;;;24.30;4.78;;;;;;;7.33;56.80;102414.09;5138585;27;20201;-52
2021/04/14 03:11:51;;;;;;;14.13;4.20;;;;;;;7.02;57.02;102417.59;5136973;27;20321;-50
2021/04/14 03:14:18;;;;;;;22.67;4.47;;;;;;;7.18;56.71;102418.88;5138266;27;20270;-47
2021/04/14 03:16:45;;;;;;;18.35;4.80;;;;;;;7.22;56.04;102423.50;5137639;27;20230;-49
2021/04/14 03:19:12;;;;;;;20.30;4.28;;;;;;;7.36;56.23;102419.47;5138379;27;20198;-48
2021/04/14 03:21:39;;;;;;;13.00;4.70;;;;;;;7.47;55.79;102422.91;5136936;27;20699;-47
2021/04/14 03:24:07;;;;;;;17.38;4.65;;;;;;;7.08;56.80;102424.94;5138290;27;20230;-48
2021/04/14 03:26:34;;;;;;;25.52;7.15;;;;;;;7.17;57.64;102417.97;5137077;27;20675;-47
2021/04/14 03:29:01;;;;;;;16.23;4.15;;;;;;;6.69;58.25;102421.72;5137872;27;20510;-48
2021/04/14 03:31:27;;;;;;;16.67;4.40;;;;;;;7.07;58.01;102418.88;5137529;27;20309;-49
2021/04/14 03:33:54;;;;;;;10.77;3.60;;;;;;;6.87;57.84;102418.13;5137872;27;20479;-49
2021/04/14 03:36:21;;;;;;;16.52;5.72;;;;;;;7.13;56.97;102410.81;5137111;27;20222;-48
2021/04/14 03:38:48;;;;;;;18.95;5.13;;;;;;;7.07;57.01;102406.06;5137714;27;20227;-50
2021/04/14 03:41:15;;;;;;;14.80;5.43;;;;;;;6.96;57.13;102412.88;5136700;27;20226;-51
2021/04/14 03:43:42;;;;;;;31.65;9.15;;;;;;;7.15;57.11;102412.72;5140255;27;20227;-49
2021/04/14 03:46:09;;;;;;;12.85;3.65;;;;;;;6.87;57.43;102423.25;5137890;27;20287;-52
2021/04/14 03:48:36;;;;;;;14.45;4.50;;;;;;;6.67;58.26;102423.25;5137000;27;20238;-49
2021/04/14 03:51:03;;;;;;;17.00;4.03;;;;;;;6.88;57.91;102419.03;5137516;27;20199;-49
2021/04/14 03:53:31;;;;;;;19.80;4.35;;;;;;;6.97;57.80;102413.78;5135203;27;20234;-46
2021/04/14 03:55:59;;;;;;;13.52;4.85;;;;;;;6.81;58.05;102419.31;5137327;27;20229;-47
2021/04/14 03:58:28;;;;;;;13.90;4.13;;;;;;;6.84;57.93;102412.75;5136556;27;20240;-47
2021/04/14 04:00:57;;;;;;;15.88;5.95;;;;;;;7.03;57.89;102409.16;5137187;27;20513;-49
2021/04/14 04:03:25;;;;;;;17.00;6.30;;;;;;;7.19;57.30;102411.31;5136321;27;20227;-47
2021/04/14 04:05:51;;;;;;;16.48;5.47;;;;;;;6.97;57.55;102414.66;5137403;27;20202;-47
2021/04/14 04:08:18;;;;;;;22.08;6.00;;;;;;;6.86;57.81;102424.03;5136271;27;20242;-49
2021/04/14 04:10:45;;;;;;;13.95;5.50;;;;;;;6.90;57.46;102409.78;5137149;27;20514;-48
2021/04/14 04:13:13;;;;;;;18.17;5.80;;;;;;;6.69;57.99;102411.44;5135615;27;20245;-50
2021/04/14 04:15:41;;;;;;;16.55;6.35;;;;;;;6.93;57.44;102412.63;5137001;27;20289;-47
2021/04/14 04:18:07;;;;;;;17.02;6.40;;;;;;;7.05;57.71;102417.88;5136414;27;20250;-48
2021/04/14 04:20:35;;;;;;;15.48;5.80;;;;;;;6.87;57.65;102422.38;5137149;27;20198;-47
2021/04/14 04:23:02;;;;;;;32.10;11.43;;;;;;;7.23;57.67;102417.59;5135270;27;20237;-48
2021/04/14 04:25:29;;;;;;;23.08;6.32;;;;;;;7.08;56.65;102419.78;5136832;27;20203;-47
2021/04/14 04:27:56;;;;;;;14.75;5.65;;;;;;;7.19;56.54;102425.81;5135787;27;20238;-48
2021/04/14 04:30:24;;;;;;;22.35;7.47;;;;;;;7.23;56.70;102417.59;5137070;27;20205;-48
2021/04/14 04:32:52;;;;;;;16.77;6.15;;;;;;;7.30;56.42;102423.34;5135837;27;20576;-47
2021/04/14 04:35:19;;;;;;;18.73;6.82;;;;;;;6.95;57.45;102430.69;5136747;27;20206;-48
2021/04/14 04:37:46;;;;;;;14.60;5.50;;;;;;;7.07;57.17;102428.28;5135703;27;20241;-49
2021/04/14 04:40:14;;;;;;;20.83;6.03;;;;;;;6.76;57.96;102429.16;5136987;27;20199;-50
2021/04/14 04:42:41;;;;;;;17.92;5.43;;;;;;;6.81;57.84;102438.13;5135335;27;20329;-48
2021/04/14 04:45:09;;;;;;;27.42;6.90;;;;;;;7.06;58.10;102437.63;5136704;27;20568;-48
2021/04/14 04:47:36;;;;;;;16.42;6.15;;;;;;;7.11;56.97;102444.03;5136094;27;20234;-48
2021/04/14 04:50:04;;;;;;;19.25;6.03;;;;;;;7.26;57.01;102440.94;5136545;27;20206;-47
2021/04/14 04:52:30;;;;;;;20.80;6.55;;;;;;;7.21;57.13;102438.00;5134914;27;20226;-49
2021/04/14 04:54:57;;;;;;;16.33;6.82;;;;;;;7.24;56.80;102445.06;5136620;27;20209;-49
2021/04/14 04:57:23;;;;;;;23.52;9.40;;;;;;;7.38;56.25;102443.63;5135470;27;20234;-47
2021/04/14 04:59:50;;;;;;;13.65;5.47;;;;;;;6.97;57.23;102445.47;5136612;27;20198;-49
2021/04/14 05:02:17;;;;;;;10.90;5.55;;;;;;;7.02;57.25;102443.25;5135435;27;20321;-47
2021/04/14 05:04:44;;;;;;;14.20;5.75;;;;;;;6.95;57.73;102449.56;5138615;27;20620;-50
2021/04/14 05:07:11;;;;;;;14.18;4.93;;;;;;;7.24;56.91;102457.91;5114879;28;20227;-48
2021/04/14 05:09:38;;;;;;;54.97;22.13;;;;;;;7.03;58.46;102455.34;5115741;28;20206;-47
2021/04/14 05:12:06;;;;;;;15.27;5.10;;;;;;;7.15;57.50;102455.47;5114592;28;20235;-50
2021/04/14 05:14:33;;;;;;;23.20;7.20;;;;;;;7.61;56.64;102450.63;5115799;28;20199;-48
2021/04/14 05:16:59;;;;;;;14.35;5.32;;;;;;;7.54;56.88;102453.50;5114939;28;20560;-47
2021/04/14 05:19:26;;;;;;;16.00;4.43;;;;;;;7.22;57.87;102446.63;5115618;28;20218;-48
2021/04/14 05:21:53;;;;;;;16.02;3.85;;;;;;;7.07;58.54;102452.25;5113977;28;20710;-47
2021/04/14 05:24:20;;;;;;;15.85;4.10;;;;;;;7.46;58.25;102452.84;5115597;28;20294;-48
2021/04/14 05:26:47;;;;;;;13.30;4.15;;;;;;;7.64;56.81;102448.31;5114788;28;20230;-47
2021/04/14 05:29:13;;;;;;;36.22;10.18;;;;;;;7.76;56.58;102452.63;5115397;28;20271;-50
2021/04/14 05:31:41;;;;;;;21.57;6.33;;;;;;;7.88;57.06;102455.28;5114557;28;20230;-50
2021/04/14 05:34:08;;;;;;;12.35;4.50;;;;;;;7.42;56.96;102459.41;5115501;28;20868;-48
2021/04/14 05:36:35;;;;;;;14.50;4.20;;;;;;;7.78;56.25;102461.34;5114553;28;20235;-48
2021/04/14 05:39:04;;;;;;;8.33;4.00;;;;;;;7.81;56.08;102469.34;5115491;28;20439;-48
2021/04/14 05:41:31;;;;;;;13.07;3.90;;;;;;;8.06;55.18;102472.16;5114286;28;20532;-47
2021/04/14 05:43:58;;;;;;;21.20;6.80;;;;;;;8.10;56.20;102476.78;5115216;28;20200;-48
2021/04/14 05:46:24;;;;;;;10.80;3.80;;;;;;;8.08;55.44;102472.31;5114604;28;20522;-47
2021/04/14 05:48:51;;;;;;;13.43;3.73;;;;;;;8.08;55.33;102473.22;5127288;27;20536;-47
2021/04/14 05:51:21;;;;;;;18.55;3.33;;;;;;;7.91;56.31;102473.53;5134554;27;20875;-47
2021/04/14 05:53:50;;;;;;;13.93;3.60;;;;;;;7.79;56.19;102483.75;5135504;27;20227;-50
2021/04/14 05:56:17;;;;;;;11.13;4.67;;;;;;;7.77;56.84;102485.25;5135021;27;20459;-47
2021/04/14 05:58:44;;;;;;;8.90;3.80;;;;;;;8.22;55.96;102484.56;5135731;27;20536;-47
2021/04/14 06:01:12;;;;;;;9.87;3.63;;;;;;;8.23;55.32;102491.53;5135394;27;20924;-51
2021/04/14 06:03:39;;;;;;;13.73;3.80;;;;;;;7.95;55.88;102486.75;5135193;27;20456;-47
2021/04/14 06:06:05;;;;;;;12.87;3.90;;;;;;;8.05;55.85;102492.66;5136061;27;20200;-48
2021/04/14 06:08:32;;;;;;;13.20;4.30;;;;;;;8.47;54.85;102494.22;5134825;27;20483;-47
2021/04/14 06:11:02;;;;;;;16.40;4.83;;;;;;;8.55;54.70;102488.84;5135601;27;20287;-47
2021/04/14 06:13:29;;;;;;;7.80;3.33;;;;;;;7.99;56.30;102494.72;5134259;27;20531;-47
2021/04/14 06:15:57;;;;;;;11.50;3.50;;;;;;;8.23;55.76;102488.97;5136749;27;20535;-49
2021/04/14 06:18:23;;;;;;;12.57;3.63;;;;;;;8.41;55.14;102488.59;5138686;27;20772;-47
2021/04/14 06:20:50;;;;;;;9.50;4.28;;;;;;;8.49;55.02;102492.69;5139526;27;20543;-50
2021/04/14 06:23:18;;;;;;;10.70;3.60;;;;;;;8.51;54.66;102501.44;5137719;27;20652;-47
2021/04/14 06:25:56;;;;;;;21.40;4.30;;;;;;;8.49;54.54;102502.97;5139401;27;20456;-49
2021/04/14 06:28:23;;;;;;;14.90;3.40;;;;;;;8.62;54.54;102501.38;5137920;27;20903;-48
2021/04/14 06:30:50;;;;;;;12.37;3.70;;;;;;;8.84;54.25;102493.66;5139316;27;20452;-48
2021/04/14 06:33:19;;;;;;;8.53;2.73;;;;;;;8.57;54.53;102494.97;5137877;27;20470;-47
2021/04/14 06:35:47;;;;;;;10.20;3.57;;;;;;;8.54;54.68;102505.03;5138859;27;20549;-48
2021/04/14 06:38:15;;;;;;;12.87;3.80;;;;;;;8.72;54.86;102496.16;5137871;27;20486;-50
2021/04/14 06:43:36;;;;;;;8.60;2.67;;;;;;;9.28;53.07;102487.47;5134144;27;20834;-49
2021/04/14 06:46:06;;;;;;;6.60;2.40;;;;;;;9.03;53.99;102490.78;5139034;27;20452;-52
2021/04/14 06:48:39;;;;;;;8.93;2.33;;;;;;;9.14;53.42;102493.28;5138156;27;20479;-49
2021/04/14 06:51:09;;;;;;;9.20;3.20;;;;;;;8.82;53.26;102502.03;5138579;27;20480;-47
2021/04/14 06:53:42;;;;;;;12.03;2.53;;;;;;;9.41;52.43;102484.16;5137226;27;20561;-48
2021/04/14 06:56:13;;;;;;;7.53;2.53;;;;;;;9.42;51.42;102483.38;5138642;27;20551;-48
2021/04/14 06:58:42;;;;;;;12.07;3.27;;;;;;;9.19;52.64;102494.53;5138416;27;20930;-49
2021/04/14 07:01:12;;;;;;;10.57;2.67;;;;;;;9.39;52.08;102488.28;5138279;27;20857;-48
2021/04/14 07:03:46;;;;;;;18.20;3.33;;;;;;;9.07;52.63;102491.03;5137772;27;20495;-48
2021/04/14 07:06:16;;;;;;;10.57;2.20;;;;;;;9.43;51.76;102481.66;5138691;27;20418;-52
2021/04/14 07:09:07;;;;;;;10.80;2.80;;;;;;;9.38;51.81;102490.75;5138275;27;20505;-48
2021/04/14 07:11:35;;;;;;;10.73;2.00;;;;;;;8.98;52.44;102493.81;5136864;27;20472;-52
2021/04/14 07:14:02;;;;;;;11.63;2.30;;;;;;;9.41;51.88;102481.56;5140859;27;20854;-48
2021/04/14 07:16:38;;;;;;;14.20;3.37;;;;;;;9.59;51.83;102489.75;5137678;27;20480;-48
2021/04/14 07:19:18;;;;;;;11.67;2.57;;;;;;;9.54;51.09;102493.66;5138302;27;20434;-52
2021/04/14 07:21:49;;;;;;;8.83;2.13;;;;;;;9.94;51.52;102487.06;5136500;27;20454;-49
2021/04/14 07:24:22;;;;;;;9.43;2.17;;;;;;;9.94;51.25;102494.81;5138158;27;20742;-49
2021/04/14 07:26:52;;;;;;;11.07;2.37;;;;;;;10.24;51.64;102484.88;5137032;27;20446;-47
2021/04/14 07:29:27;;;;;;;5.87;1.80;;;;;;;9.35;51.40;102483.69;5138154;27;20433;-47
2021/04/14 07:31:58;;;;;;;10.10;2.10;;;;;;;9.79;49.59;102482.56;5137056;27;20478;-48
2021/04/14 07:34:36;;;;;;;8.53;2.10;;;;;;;10.05;50.28;102482.69;5138030;27;20431;-50
2021/04/14 07:37:07;;;;;;;10.10;1.70;;;;;;;9.89;50.19;102475.53;5136194;27;20466;-47
2021/04/14 07:39:36;;;;;;;7.53;1.80;;;;;;;10.16;49.65;102470.53;5137787;27;20940;-50
2021/04/14 07:42:17;;;;;;;8.50;1.93;;;;;;;10.32;49.10;102465.69;5138884;27;20482;-49
2021/04/14 07:44:50;;;;;;;10.63;1.90;;;;;;;10.66;47.77;102468.03;5137883;27;20456;-49
2021/04/14 07:47:18;;;;;;;9.40;2.10;;;;;;;10.67;47.48;102464.66;5136825;27;20452;-47
2021/04/14 07:49:45;;;;;;;11.60;2.73;;;;;;;10.87;47.06;102456.50;5137582;27;20879;-48
2021/04/14 07:52:14;;;;;;;5.50;1.80;;;;;;;10.64;47.05;102464.47;5136402;27;20566;-48
2021/04/14 07:54:42;;;;;;;6.67;1.40;;;;;;;10.22;47.93;102461.56;5137588;27;20467;-47
2021/04/14 07:57:09;;;;;;;9.93;3.40;;;;;;;10.34;47.44;102469.25;5136113;27;20575;-50
2021/04/14 07:59:38;;;;;;;7.93;1.80;;;;;;;10.55;47.23;102468.09;5137367;27;20487;-47
2021/04/14 08:02:06;;;;;;;8.40;3.13;;;;;;;10.10;48.68;102460.69;5135901;27;20487;-52
2021/04/14 08:04:35;;;;;;;8.07;1.80;;;;;;;10.02;49.49;102473.03;5137306;27;20452;-48
2021/04/14 08:07:09;;;;;;;4.63;1.33;;;;;;;10.00;48.47;102472.91;5135938;27;20889;-49
2021/04/14 08:09:47;;;;;;;11.50;1.60;;;;;;;9.71;49.25;102478.56;5137157;27;20953;-47
2021/04/14 08:12:14;;;;;;;10.77;1.53;;;;;;;9.85;49.44;102475.28;5135562;27;20457;-47
2021/04/14 08:14:43;;;;;;;9.60;2.17;;;;;;;9.73;49.57;102474.41;5136997;27;20458;-48
2021/04/14 08:17:14;;;;;;;6.83;1.27;;;;;;;10.16;48.93;102471.44;5136220;27;20476;-51
2021/04/14 08:19:41;;;;;;;4.70;1.40;;;;;;;10.45;47.82;102470.03;5137253;27;20539;-50
2021/04/14 08:22:22;;;;;;;4.93;1.37;;;;;;;10.88;47.72;102466.91;5135523;27;20502;-47
2021/04/14 08:24:50;;;;;;;4.50;1.70;;;;;;;10.73;47.66;102460.72;5136676;27;20487;-47
2021/04/14 08:27:19;;;;;;;7.20;2.33;;;;;;;10.58;47.77;102456.31;5136256;27;20500;-50
2021/04/14 08:29:48;;;;;;;10.13;1.80;;;;;;;10.47;47.79;102467.56;5149834;27;20441;-48
2021/04/14 08:32:17;;;;;;;8.20;1.50;;;;;;;10.75;46.91;102462.63;5148783;27;20514;-49
2021/04/14 08:34:54;;;;;;;6.77;1.80;;;;;;;11.03;46.56;102455.84;5157453;27;20474;-47
2021/04/14 08:37:23;;;;;;;15.87;4.87;;;;;;;11.08;47.16;102464.81;5135587;27;20459;-47
2021/04/14 08:39:51;;;;;;;9.70;2.10;;;;;;;10.83;46.30;102457.06;5136187;27;20874;-47
2021/04/14 08:42:27;;;;;;;8.93;2.30;;;;;;;10.88;45.43;102450.53;5134955;27;20446;-49
2021/04/14 08:44:57;;;;;;;5.90;1.50;;;;;;;10.98;45.29;102457.22;5148466;27;20429;-48
2021/04/14 08:47:28;;;;;;;4.60;1.50;;;;;;;11.83;44.22;102457.56;5156399;27;20446;-48
2021/04/14 08:49:57;;;;;;;9.33;1.30;;;;;;;11.60;43.88;102454.41;5138422;27;20464;-49
2021/04/14 08:52:36;;;;;;;8.50;1.43;;;;;;;12.02;43.30;102459.63;5134426;27;20464;-50
2021/04/14 08:55:04;;;;;;;7.00;1.57;;;;;;;11.55;44.46;102454.91;5136318;27;20807;-48
2021/04/14 08:57:30;;;;;;;7.77;1.90;;;;;;;11.56;44.91;102456.69;5135145;27;20559;-48
2021/04/14 08:59:57;;;;;;;5.60;1.60;;;;;;;11.70;44.42;102455.88;5136406;27;20540;-47
2021/04/14 09:02:25;;;;;;;11.17;2.03;;;;;;;11.41;44.85;102460.06;5150449;27;20467;-47
2021/04/14 09:04:53;;;;;;;8.90;1.60;;;;;;;11.61;44.55;102457.88;5157273;27;20451;-48
2021/04/14 09:07:26;;;;;;;11.30;1.50;;;;;;;11.30;44.80;102454.22;5155746;27;20562;-46
2021/04/14 09:09:54;;;;;;;9.20;2.10;;;;;;;11.97;43.82;102455.88;5157092;27;21099;-49
2021/04/14 09:12:34;;;;;;;10.80;3.43;;;;;;;11.59;43.97;102455.19;5151813;27;20921;-48
2021/04/14 09:15:01;;;;;;;5.60;1.67;;;;;;;11.73;43.41;102450.94;5157057;27;20890;-47
2021/04/14 09:17:28;;;;;;;15.00;2.10;;;;;;;11.42;43.18;102448.03;5155892;27;20911;-49
2021/04/14 09:19:55;;;;;;;10.17;2.23;;;;;;;11.32;42.03;102456.88;5157060;27;20455;-47
2021/04/14 09:22:24;;;;;;;6.40;1.60;;;;;;;10.99;42.83;102448.69;5155137;27;20483;-47
2021/04/14 09:24:52;;;;;;;11.60;2.60;;;;;;;11.63;41.74;102450.25;5156983;27;20458;-47
2021/04/14 09:27:36;;;;;;;14.43;1.97;;;;;;;12.10;41.26;102446.34;5155245;27;20524;-48
2021/04/14 09:30:13;;;;;;;25.63;11.00;;;;;;;12.63;39.15;102441.75;5154538;27;20453;-50
2021/04/14 09:32:54;;;;;;;13.80;3.87;;;;;;;12.80;39.91;102446.25;5155633;27;20944;-49
2021/04/14 09:35:25;;;;;;;8.83;1.43;;;;;;;12.72;38.59;102442.28;5151213;27;20456;-47
2021/04/14 09:38:04;;;;;;;25.57;8.20;;;;;;;12.72;40.69;102433.66;5134443;27;20484;-49
2021/04/14 09:40:35;;;;;;;37.17;14.10;;;;;;;12.40;39.74;102449.00;5145979;27;20843;-48
2021/04/14 09:43:15;;;;;;;9.30;1.40;;;;;;;11.83;39.88;102447.22;5145560;27;20492;-48
2021/04/14 09:45:53;;;;;;;9.90;1.37;;;;;;;11.59;40.88;102446.56;5136012;28;20456;-47
2021/04/14 09:48:20;;;;;;;5.57;1.40;;;;;;;11.57;39.86;102449.03;5135069;27;20563;-47
2021/04/14 09:50:47;;;;;;;14.73;4.23;;;;;;;11.58;39.23;102443.06;5137022;27;20452;-48
2021/04/14 09:53:28;;;;;;;16.87;3.67;;;;;;;11.67;39.19;102442.78;5137746;27;20458;-49
2021/04/14 09:55:58;;;;;;;10.67;4.10;;;;;;;11.54;39.98;102442.78;5139795;27;20450;-48
2021/04/14 09:58:30;;;;;;;21.37;7.43;;;;;;;12.37;38.79;102446.25;5138267;27;20568;-47
2021/04/14 10:01:10;;;;;;;7.00;1.50;;;;;;;12.36;38.15;102436.69;5139615;27;20765;-47
2021/04/14 10:03:38;;;;;;;11.63;2.80;;;;;;;12.87;35.22;102428.50;5138371;27;20476;-47
2021/04/14 10:06:09;;;;;;;13.30;3.07;;;;;;;13.16;34.33;102418.91;5139577;27;20457;-48
2021/04/14 10:08:37;;;;;;;4.63;1.20;;;;;;;13.22;35.45;102419.25;5138124;27;20474;-50
2021/04/14 10:11:04;;;;;;;15.00;4.20;;;;;;;13.52;33.77;102423.56;5139352;27;20746;-49
2021/04/14 10:13:32;;;;;;;10.10;1.77;;;;;;;13.07;33.55;102419.25;5137923;27;20481;-47
2021/04/14 10:16:00;;;;;;;5.60;1.97;;;;;;;12.76;32.53;102413.19;5139645;27;20453;-49
2021/04/14 10:18:30;;;;;;;6.90;2.67;;;;;;;12.16;31.85;102420.84;5138351;27;20513;-45
2021/04/14 10:21:11;;;;;;;15.10;4.43;;;;;;;13.10;31.04;102415.19;5139162;27;20452;-47
2021/04/14 10:23:38;;;;;;;6.30;1.90;;;;;;;13.54;31.16;102415.03;5137734;27;20490;-48
2021/04/14 10:26:08;;;;;;;7.20;1.63;;;;;;;13.05;31.80;102406.25;5139258;27;20457;-50
2021/04/14 10:28:35;;;;;;;5.90;2.47;;;;;;;13.07;32.62;102399.44;5137763;27;20483;-47
2021/04/14 10:31:05;;;;;;;6.67;2.10;;;;;;;13.01;33.92;102401.69;5139036;27;20497;-48
2021/04/14 10:33:32;;;;;;;16.50;6.63;;;;;;;13.27;34.01;102407.47;5137549;27;20564;-47
2021/04/14 10:36:10;;;;;;;8.70;3.17;;;;;;;13.28;33.22;102401.47;5149660;27;20453;-50
2021/04/14 10:38:37;;;;;;;10.10;1.40;;;;;;;12.61;36.73;102404.53;5158299;27;20480;-47
2021/04/14 10:41:17;;;;;;;4.80;1.30;;;;;;;12.20;38.38;102404.69;5159603;27;20453;-47
2021/04/14 10:43:44;;;;;;;6.40;1.67;;;;;;;12.23;39.07;102412.66;5158653;27;20548;-48
2021/04/14 10:46:14;;;;;;;8.50;2.10;;;;;;;12.01;38.73;102406.09;5159320;27;20456;-51
2021/04/14 10:48:43;;;;;;;7.70;1.70;;;;;;;11.89;39.76;102401.06;5159061;27;20460;-47
2021/04/14 10:51:12;;;;;;;6.90;1.10;;;;;;;11.92;39.16;102408.13;5159533;27;20513;-53
2021/04/14 10:53:42;;;;;;;7.73;1.80;;;;;;;12.02;39.30;102410.47;5158552;27;20488;-47
2021/04/14 10:56:13;;;;;;;10.80;3.70;;;;;;;12.51;38.11;102396.19;5145290;27;20466;-48
2021/04/14 10:58:41;;;;;;;13.37;3.17;;;;;;;12.74;39.11;102398.38;5138089;27;20451;-48
2021/04/14 11:01:13;;;;;;;7.83;1.83;;;;;;;12.74;36.75;102400.97;5137334;27;20474;-50
2021/04/14 11:03:42;;;;;;;9.00;3.10;;;;;;;13.20;36.28;102395.88;5137746;27;20469;-47
2021/04/14 11:06:10;;;;;;;6.60;1.70;;;;;;;13.42;36.05;102396.16;5138066;27;20464;-47
2021/04/14 11:08:37;;;;;;;8.07;1.70;;;;;;;13.62;36.29;102389.53;5136863;27;20480;-48
2021/04/14 11:11:04;;;;;;;4.53;1.10;;;;;;;13.09;36.92;102395.22;5138270;27;20457;-48
2021/04/14 11:13:31;;;;;;;7.43;1.70;;;;;;;13.25;37.27;102396.13;5136225;27;20484;-51
2021/04/14 11:15:59;;;;;;;5.73;1.47;;;;;;;13.18;36.28;102387.09;5138045;27;20472;-49
2021/04/14 11:18:32;;;;;;;6.50;1.90;;;;;;;13.68;35.17;102389.88;5139950;27;20485;-48
2021/04/14 11:21:06;;;;;;;4.07;1.00;;;;;;;12.89;34.12;102385.41;5137977;27;20538;-51
2021/04/14 11:23:35;;;;;;;8.43;1.70;;;;;;;12.78;35.35;102385.69;5136247;27;20486;-48
2021/04/14 11:26:07;;;;;;;6.77;1.50;;;;;;;12.76;33.61;102395.06;5137889;27;20459;-48
2021/04/14 11:28:45;;;;;;;5.83;1.63;;;;;;;13.02;34.57;102395.69;5136394;27;20478;-48
2021/04/14 11:31:14;;;;;;;6.13;1.03;;;;;;;13.30;34.06;102399.88;5137901;27;20537;-49
2021/04/14 11:33:43;;;;;;;13.30;1.40;;;;;;;13.29;33.56;102394.59;5137171;27;20457;-48